createdAt,value
2022-11-25T00:01:14.713Z,1.40
2022-11-25T00:03:42.862Z,1.20
2022-11-25T00:06:09.911Z,1.33
2022-11-25T00:08:37.806Z,1.25
2022-11-25T00:11:05.941Z,1.92
2022-11-25T00:13:33.029Z,1.85
2022-11-25T00:16:11.180Z,2.00
2022-11-25T00:18:38.489Z,1.92
2022-11-25T00:21:07.522Z,2.55
2022-11-25T00:23:35.062Z,2.45
2022-11-25T00:26:15.832Z,2.10
2022-11-25T00:28:44.489Z,2.30
2022-11-25T00:31:20.288Z,1.95
2022-11-25T00:33:48.033Z,2.03
2022-11-25T00:36:21.992Z,2.35
2022-11-25T00:39:03.191Z,1.88
2022-11-25T00:41:48.992Z,1.67
2022-11-25T00:44:37.858Z,1.45
2022-11-25T00:47:17.470Z,2.10
2022-11-25T00:49:49.017Z,1.40
2022-11-25T00:52:19.194Z,1.80
2022-11-25T00:54:50.620Z,1.52
2022-11-25T00:57:19.243Z,1.30
2022-11-25T00:59:46.062Z,1.35
2022-11-25T01:02:14.307Z,1.20
2022-11-25T01:04:41.503Z,1.50
2022-11-25T01:07:08.380Z,1.48
2022-11-25T01:09:35.374Z,1.55
2022-11-25T01:12:02.122Z,1.77
2022-11-25T01:14:28.907Z,1.52
2022-11-25T01:16:55.686Z,1.10
2022-11-25T01:19:24.246Z,1.50
2022-11-25T01:21:51.026Z,1.33
2022-11-25T01:24:18.279Z,1.15
2022-11-25T01:26:45.847Z,1.48
2022-11-25T01:29:18.795Z,1.15
2022-11-25T01:31:46.971Z,1.80
2022-11-25T01:34:24.640Z,1.40
2022-11-25T01:36:51.971Z,1.27
2022-11-25T01:39:28.622Z,1.23
2022-11-25T01:41:59.229Z,1.20
2022-11-25T01:44:31.333Z,1.10
2022-11-25T01:47:16.242Z,1.13
2022-11-25T01:50:00.140Z,0.98
2022-11-25T01:52:32.774Z,1.17
2022-11-25T01:55:09.171Z,1.20
2022-11-25T01:57:46.027Z,1.40
2022-11-25T02:00:13.409Z,1.02
2022-11-25T02:02:40.538Z,0.98
2022-11-25T02:05:11.071Z,1.10
2022-11-25T02:07:41.530Z,0.80
2022-11-25T02:10:13.919Z,1.45
2022-11-25T02:12:42.137Z,1.00
2022-11-25T02:15:09.765Z,1.20
2022-11-25T02:17:37.025Z,1.00
2022-11-25T02:20:12.534Z,0.90
2022-11-25T02:22:57.922Z,1.27
2022-11-25T02:25:35.999Z,1.17
2022-11-25T02:28:14.177Z,1.30
2022-11-25T02:30:41.757Z,0.75
2022-11-25T02:33:08.856Z,1.05
2022-11-25T02:35:40.272Z,0.90
2022-11-25T02:38:22.876Z,0.95
2022-11-25T02:40:59.397Z,0.88
2022-11-25T02:43:27.179Z,1.23
2022-11-25T02:46:11.199Z,9.70
2022-11-25T02:49:07.229Z,3.42
2022-11-25T02:51:29.880Z,2.90
2022-11-25T02:53:57.215Z,3.30
2022-11-25T02:56:28.109Z,1.70
2022-11-25T02:58:54.854Z,1.30
2022-11-25T03:01:22.083Z,1.08
2022-11-25T03:03:49.300Z,1.45
2022-11-25T03:06:16.084Z,1.63
2022-11-25T03:08:43.801Z,1.25
2022-11-25T03:11:10.673Z,1.30
2022-11-25T03:13:37.422Z,1.70
2022-11-25T03:16:04.604Z,1.48
2022-11-25T03:18:31.505Z,1.17
2022-11-25T03:20:58.251Z,1.50
2022-11-25T03:23:25.141Z,1.20
2022-11-25T03:25:52.021Z,1.35
2022-11-25T03:28:18.759Z,0.90
2022-11-25T03:30:45.644Z,1.00
2022-11-25T03:33:12.470Z,1.20
2022-11-25T03:35:39.210Z,1.00
2022-11-25T03:38:05.953Z,0.90
2022-11-25T03:40:32.653Z,1.15
2022-11-25T03:42:59.454Z,1.10
2022-11-25T03:45:26.196Z,1.30
2022-11-25T03:47:52.961Z,0.82
2022-11-25T03:50:19.710Z,1.00
2022-11-25T03:52:46.469Z,1.20
2022-11-25T03:55:13.498Z,1.02
2022-11-25T03:57:41.230Z,1.10
2022-11-25T04:00:09.484Z,1.05
2022-11-25T04:02:36.272Z,1.00
2022-11-25T04:05:05.454Z,1.00
2022-11-25T04:07:32.596Z,1.05
2022-11-25T04:09:59.408Z,1.08
2022-11-25T04:12:44.980Z,0.95
2022-11-25T04:15:11.723Z,1.02
2022-11-25T04:17:38.715Z,1.17
2022-11-25T04:20:06.279Z,1.98
2022-11-25T04:22:33.038Z,1.30
2022-11-25T04:24:59.785Z,1.25
2022-11-25T04:27:26.815Z,0.95
2022-11-25T04:29:53.632Z,1.67
2022-11-25T04:32:20.497Z,1.50
2022-11-25T04:34:47.234Z,1.30
2022-11-25T04:37:15.218Z,1.40
2022-11-25T04:39:42.135Z,1.70
2022-11-25T04:42:27.241Z,2.28
2022-11-25T04:45:14.503Z,2.28
2022-11-25T04:47:41.632Z,2.38
2022-11-25T04:50:14.219Z,1.77
2022-11-25T04:52:41.342Z,1.30
2022-11-25T04:55:08.506Z,1.95
2022-11-25T04:57:35.405Z,2.20
2022-11-25T05:00:02.242Z,2.10
2022-11-25T05:02:29.410Z,1.73
2022-11-25T05:04:57.231Z,1.65
2022-11-25T05:07:26.658Z,1.60
2022-11-25T05:09:53.605Z,1.30
2022-11-25T05:12:23.024Z,1.17
2022-11-25T05:14:50.109Z,0.95
2022-11-25T05:17:19.774Z,1.20
2022-11-25T05:19:46.534Z,0.90
2022-11-25T05:22:14.996Z,0.90
2022-11-25T05:24:41.859Z,0.90
2022-11-25T05:27:08.698Z,0.95
2022-11-25T05:29:35.644Z,1.10
2022-11-25T05:32:02.421Z,1.13
2022-11-25T05:34:29.279Z,0.90
2022-11-25T05:36:56.032Z,0.90
2022-11-25T05:39:22.915Z,0.82
2022-11-25T05:41:49.769Z,0.70
2022-11-25T05:44:22.485Z,0.90
2022-11-25T05:46:50.282Z,0.82
2022-11-25T05:49:18.053Z,1.10
2022-11-25T05:51:45.412Z,1.20
2022-11-25T05:54:12.524Z,1.25
2022-11-25T05:56:39.526Z,1.23
2022-11-25T05:59:07.016Z,1.40
2022-11-25T06:01:34.143Z,1.35
2022-11-25T06:04:02.186Z,1.35
2022-11-25T06:06:29.536Z,1.45
2022-11-25T06:08:56.716Z,1.42
2022-11-25T06:11:25.476Z,1.30
2022-11-25T06:13:52.305Z,1.55
2022-11-25T06:16:21.767Z,1.35
2022-11-25T06:18:48.799Z,1.63
2022-11-25T06:21:16.407Z,1.80
2022-11-25T06:23:45.505Z,2.60
2022-11-25T06:26:18.640Z,1.92
2022-11-25T06:28:46.000Z,1.63
2022-11-25T06:31:18.940Z,1.40
2022-11-25T06:33:50.624Z,1.20
2022-11-25T06:36:19.247Z,1.42
2022-11-25T06:38:47.974Z,2.15
2022-11-25T06:41:15.505Z,1.48
2022-11-25T06:43:42.338Z,2.10
2022-11-25T06:46:17.426Z,3.00
2022-11-25T06:48:48.350Z,2.35
2022-11-25T06:51:16.525Z,2.33
2022-11-25T06:53:43.487Z,1.67
2022-11-25T06:56:21.289Z,1.75
2022-11-25T06:58:49.082Z,2.40
2022-11-25T07:01:28.018Z,2.95
2022-11-25T07:04:00.687Z,3.22
2022-11-25T07:06:27.777Z,3.10
2022-11-25T07:08:54.667Z,3.33
2022-11-25T07:11:30.329Z,3.90
2022-11-25T07:14:02.965Z,3.28
2022-11-25T07:16:30.220Z,2.90
2022-11-25T07:18:59.182Z,2.88
2022-11-25T07:21:26.236Z,2.70
2022-11-25T07:23:53.324Z,2.25
2022-11-25T07:26:22.496Z,2.60
2022-11-25T07:28:51.136Z,2.28
2022-11-25T07:31:27.060Z,2.63
2022-11-25T07:33:58.289Z,3.83
2022-11-25T07:36:25.559Z,5.97
2022-11-25T07:38:52.475Z,8.15
2022-11-25T07:41:25.407Z,4.13
2022-11-25T07:43:55.303Z,4.50
2022-11-25T07:46:31.002Z,4.05
2022-11-25T07:49:00.213Z,2.83
2022-11-25T07:51:31.562Z,2.25
2022-11-25T07:54:00.651Z,3.90
2022-11-25T07:56:28.526Z,2.75
2022-11-25T07:58:57.237Z,4.43
2022-11-25T08:01:24.473Z,6.05
2022-11-25T08:03:51.650Z,8.25
2022-11-25T08:06:21.104Z,5.80
2022-11-25T08:08:48.462Z,7.97
2022-11-25T08:11:18.669Z,10.13
2022-11-25T08:13:45.854Z,8.57
2022-11-25T08:16:14.939Z,8.93
2022-11-25T08:18:42.268Z,6.38
2022-11-25T08:21:11.766Z,4.25
2022-11-25T08:23:40.630Z,4.18
2022-11-25T08:26:12.058Z,4.50
2022-11-25T08:28:41.493Z,8.20
2022-11-25T08:31:09.891Z,6.30
2022-11-25T08:33:36.804Z,6.72
2022-11-25T08:36:04.295Z,6.75
2022-11-25T08:38:31.517Z,7.10
2022-11-25T08:40:59.260Z,7.72
2022-11-25T08:43:29.575Z,7.32
2022-11-25T08:45:56.904Z,6.75
2022-11-25T08:48:24.134Z,6.03
2022-11-25T08:50:54.773Z,6.55
2022-11-25T08:53:22.506Z,5.13
2022-11-25T08:55:49.613Z,5.03
2022-11-25T08:58:16.820Z,5.57
2022-11-25T09:00:45.153Z,5.80
2022-11-25T09:03:12.232Z,6.18
2022-11-25T09:05:41.531Z,14.63
2022-11-25T09:08:09.766Z,12.52
2022-11-25T09:10:38.679Z,16.00
2022-11-25T09:13:05.609Z,10.63
2022-11-25T09:15:32.767Z,10.35
2022-11-25T09:18:05.933Z,9.70
2022-11-25T09:20:34.023Z,11.82
2022-11-25T09:23:02.388Z,11.98
2022-11-25T09:25:29.894Z,11.23
2022-11-25T09:27:57.856Z,10.65
2022-11-25T09:30:25.110Z,18.63
2022-11-25T09:32:53.924Z,12.07
2022-11-25T09:35:21.630Z,9.73
2022-11-25T09:37:48.517Z,6.90
2022-11-25T09:40:25.374Z,8.48
2022-11-25T09:43:21.725Z,9.23
2022-11-25T09:46:38.441Z,5.88
2022-11-25T09:49:17.379Z,10.38
2022-11-25T09:51:56.050Z,8.07
2022-11-25T09:54:33.754Z,6.93
2022-11-25T09:57:10.707Z,7.07
2022-11-25T09:59:52.597Z,6.70
2022-11-25T10:02:41.566Z,6.65
2022-11-25T10:05:40.166Z,6.57
2022-11-25T10:08:16.238Z,6.07
2022-11-25T10:10:51.060Z,6.10
2022-11-25T10:13:29.341Z,5.63
2022-11-25T10:16:01.483Z,6.40
2022-11-25T10:18:39.803Z,2.72
2022-11-25T10:21:09.498Z,4.47
2022-11-25T10:23:38.121Z,6.78
2022-11-25T10:26:15.233Z,2.92
2022-11-25T10:29:06.790Z,2.35
2022-11-25T10:31:36.699Z,1.50
2022-11-25T10:34:30.638Z,2.88
2022-11-25T10:37:00.491Z,3.65
2022-11-25T10:39:31.740Z,2.75
2022-11-25T10:42:22.150Z,3.08
2022-11-25T10:44:48.975Z,2.10
2022-11-25T10:47:30.840Z,1.70
2022-11-25T10:52:46.655Z,1.42
2022-11-25T10:55:20.798Z,1.60
2022-11-25T10:57:47.686Z,2.92
2022-11-25T11:00:28.536Z,1.40
2022-11-25T11:02:56.302Z,1.40
2022-11-25T11:05:29.922Z,1.10
2022-11-25T11:08:18.234Z,1.60
2022-11-25T11:10:45.903Z,1.40
2022-11-25T11:13:28.580Z,1.60
2022-11-25T11:15:55.515Z,2.13
2022-11-25T11:18:39.210Z,1.60
2022-11-25T11:21:20.387Z,2.00
2022-11-25T11:23:50.245Z,2.28
2022-11-25T11:26:34.832Z,2.10
2022-11-25T11:29:16.185Z,1.77
2022-11-25T11:31:50.720Z,1.80
2022-11-25T11:34:40.726Z,1.40
2022-11-25T11:37:43.729Z,1.40
2022-11-25T11:40:25.730Z,1.60
2022-11-25T11:45:25.365Z,1.92
2022-11-25T11:48:19.834Z,2.00
2022-11-25T11:51:03.329Z,2.28
2022-11-25T11:53:31.682Z,3.25
2022-11-25T11:56:34.294Z,2.50
2022-11-25T11:59:30.851Z,2.15
2022-11-25T12:02:31.685Z,3.10
2022-11-25T12:05:19.533Z,2.40
2022-11-25T12:08:04.292Z,2.35
2022-11-25T12:10:47.277Z,2.70
2022-11-25T12:13:40.277Z,3.17
2022-11-25T12:16:27.841Z,2.72
2022-11-25T12:19:16.159Z,2.33
2022-11-25T12:22:02.451Z,2.15
2022-11-25T12:24:38.796Z,2.00
2022-11-25T12:27:15.067Z,2.40
2022-11-25T12:30:01.829Z,2.88
2022-11-25T12:32:41.614Z,2.55
2022-11-25T12:35:11.294Z,3.15
2022-11-25T12:38:00.094Z,2.38
2022-11-25T12:40:48.102Z,2.88
2022-11-25T12:43:23.671Z,2.95
2022-11-25T12:46:03.437Z,2.40
2022-11-25T12:48:31.034Z,3.85
2022-11-25T12:51:00.264Z,3.05
2022-11-25T12:53:36.399Z,2.60
2022-11-25T12:56:10.779Z,2.90
2022-11-25T12:59:21.245Z,3.10
2022-11-25T13:01:53.919Z,3.50
2022-11-25T13:04:40.799Z,2.95
2022-11-25T13:07:07.683Z,3.90
2022-11-25T13:09:45.790Z,2.50
2022-11-25T13:12:25.988Z,2.55
2022-11-25T13:15:28.429Z,2.35
2022-11-25T13:18:00.348Z,3.65
2022-11-25T13:20:27.110Z,2.65
2022-11-25T13:23:05.888Z,2.47
2022-11-25T13:25:33.345Z,1.95
2022-11-25T13:28:02.648Z,2.80
2022-11-25T13:30:32.419Z,1.98
2022-11-25T13:33:14.011Z,1.85
2022-11-25T13:35:43.559Z,2.15
2022-11-25T13:38:28.969Z,1.80
2022-11-25T13:41:04.718Z,2.47
2022-11-25T13:43:31.945Z,3.78
2022-11-25T13:45:58.864Z,3.03
2022-11-25T13:48:32.048Z,3.65
2022-11-25T13:51:19.334Z,4.50
2022-11-25T13:53:55.840Z,5.70
2022-11-25T13:56:37.142Z,4.25
2022-11-25T13:59:16.214Z,3.78
2022-11-25T14:01:46.597Z,2.65
2022-11-25T14:04:15.565Z,4.25
2022-11-25T14:06:57.315Z,2.92
2022-11-25T14:09:44.649Z,2.75
2022-11-25T14:12:11.375Z,2.83
2022-11-25T14:15:03.280Z,3.67
2022-11-25T14:17:43.815Z,2.85
2022-11-25T14:20:45.569Z,4.03
2022-11-25T14:23:41.860Z,5.38
2022-11-25T14:26:41.731Z,6.32
2022-11-25T14:29:21.587Z,8.20
2022-11-25T14:31:53.326Z,7.40
2022-11-25T14:36:54.629Z,5.38
2022-11-25T14:39:47.387Z,4.18
2022-11-25T14:42:17.854Z,3.80
2022-11-25T14:44:55.847Z,3.63
2022-11-25T14:47:35.983Z,3.70
2022-11-25T14:50:33.849Z,3.50
2022-11-25T14:52:59.231Z,3.65
2022-11-25T14:55:31.395Z,2.92
2022-11-25T14:57:58.657Z,3.08
2022-11-25T15:00:25.634Z,3.22
2022-11-25T15:02:59.078Z,3.17
2022-11-25T15:05:37.681Z,3.42
2022-11-25T15:08:25.153Z,3.40
2022-11-25T15:10:58.210Z,2.97
2022-11-25T15:13:55.119Z,2.90
2022-11-25T15:16:26.332Z,3.00
2022-11-25T15:19:02.289Z,3.00
2022-11-25T15:21:30.669Z,3.17
2022-11-25T15:23:57.903Z,3.35
2022-11-25T15:26:27.722Z,3.20
2022-11-25T15:28:59.886Z,2.65
2022-11-25T15:31:33.087Z,2.85
2022-11-25T15:34:03.280Z,2.63
2022-11-25T15:36:30.534Z,2.90
2022-11-25T15:39:21.460Z,2.80
2022-11-25T15:42:15.882Z,3.17
2022-11-25T15:44:57.534Z,3.00
2022-11-25T15:47:27.402Z,3.28
2022-11-25T15:50:25.950Z,2.85
2022-11-25T15:52:56.551Z,3.72
2022-11-25T15:55:35.794Z,4.05
2022-11-25T15:58:13.641Z,3.72
2022-11-25T16:00:43.211Z,3.25
2022-11-25T16:03:21.097Z,3.45
2022-11-25T16:05:56.296Z,3.38
2022-11-25T16:08:33.018Z,3.47
2022-11-25T16:11:11.195Z,3.05
2022-11-25T16:13:39.785Z,3.45
2022-11-25T16:16:19.762Z,3.78
2022-11-25T16:19:08.112Z,4.15
2022-11-25T16:21:40.627Z,3.40
2022-11-25T16:24:13.454Z,3.67
2022-11-25T16:26:53.312Z,3.35
2022-11-25T16:29:39.344Z,3.58
2022-11-25T16:32:21.231Z,3.85
2022-11-25T16:34:48.303Z,3.15
2022-11-25T16:37:15.117Z,3.88
2022-11-25T16:39:42.197Z,3.97
2022-11-25T16:42:19.487Z,4.40
2022-11-25T16:44:48.787Z,4.10
2022-11-25T16:47:16.737Z,4.45
2022-11-25T16:49:43.622Z,4.60
2022-11-25T16:52:10.450Z,4.80
2022-11-25T16:54:39.319Z,4.95
2022-11-25T16:57:07.740Z,4.55
2022-11-25T16:59:43.473Z,4.30
2022-11-25T17:02:20.445Z,4.13
2022-11-25T17:04:48.035Z,7.43
2022-11-25T17:07:32.166Z,11.10
2022-11-25T17:09:59.757Z,8.70
2022-11-25T17:12:30.998Z,5.47
2022-11-25T17:15:00.079Z,5.50
2022-11-25T17:17:27.784Z,6.15
2022-11-25T17:19:54.829Z,5.15
2022-11-25T17:22:24.876Z,5.13
2022-11-25T17:24:51.912Z,4.63
2022-11-25T17:27:29.509Z,5.97
2022-11-25T17:29:58.609Z,5.22
2022-11-25T17:32:26.019Z,4.57
2022-11-25T17:34:53.051Z,5.40
2022-11-25T17:37:25.805Z,5.47
2022-11-25T17:39:53.724Z,5.43
2022-11-25T17:42:39.635Z,5.13
2022-11-25T17:45:18.580Z,5.43
2022-11-25T17:47:46.250Z,5.65
2022-11-25T17:50:23.192Z,4.63
2022-11-25T17:52:51.366Z,4.57
2022-11-25T17:55:19.909Z,5.30
2022-11-25T17:57:50.285Z,5.90
2022-11-25T18:00:19.787Z,6.13
2022-11-25T18:02:47.193Z,6.50
2022-11-25T18:05:18.826Z,5.25
2022-11-25T18:07:45.980Z,5.55
2022-11-25T18:10:16.237Z,6.60
2022-11-25T18:12:45.424Z,8.02
2022-11-25T18:15:18.631Z,7.38
2022-11-25T18:17:45.965Z,7.50
2022-11-25T18:20:25.184Z,6.20
2022-11-25T18:22:52.767Z,6.72
2022-11-25T18:25:23.414Z,6.20
2022-11-25T18:27:56.156Z,6.80
2022-11-25T18:30:26.572Z,7.90
2022-11-25T18:32:53.725Z,8.05
2022-11-25T18:35:21.879Z,7.72
2022-11-25T18:37:49.035Z,6.72
2022-11-25T18:40:16.134Z,7.25
2022-11-25T18:42:47.189Z,7.05
2022-11-25T18:45:27.237Z,6.97
2022-11-25T18:47:54.045Z,6.68
2022-11-25T18:50:26.839Z,8.50
2022-11-25T18:52:54.137Z,7.55
2022-11-25T18:55:23.102Z,8.10
2022-11-25T18:57:52.022Z,6.95
2022-11-25T19:00:32.342Z,5.97
2022-11-25T19:03:01.573Z,6.45
2022-11-25T19:05:33.554Z,7.47
2022-11-25T19:10:35.215Z,6.88
2022-11-25T19:13:05.564Z,7.78
2022-11-25T19:15:33.111Z,7.03
2022-11-25T19:18:02.169Z,8.32
2022-11-25T19:20:30.307Z,7.70
2022-11-25T19:23:00.832Z,7.65
2022-11-25T19:25:29.166Z,7.68
2022-11-25T19:27:59.210Z,7.60
2022-11-25T19:30:31.395Z,6.18
2022-11-25T19:33:01.391Z,6.53
2022-11-25T19:35:38.054Z,6.35
2022-11-25T19:38:17.561Z,6.50
2022-11-25T19:40:44.550Z,8.77
2022-11-25T19:43:11.382Z,8.70
2022-11-25T19:45:38.482Z,7.70
2022-11-25T19:48:13.891Z,7.22
2022-11-25T19:50:42.275Z,6.70
2022-11-25T19:53:22.288Z,6.65
2022-11-25T19:55:49.847Z,6.63
2022-11-25T19:58:16.665Z,6.90
2022-11-25T20:00:45.571Z,6.30
2022-11-25T20:03:22.152Z,6.68
2022-11-25T20:05:50.764Z,6.07
2022-11-25T20:08:21.274Z,5.53
2022-11-25T20:10:48.643Z,6.30
2022-11-25T20:13:15.546Z,6.13
2022-11-25T20:15:43.995Z,5.88
2022-11-25T20:18:20.090Z,6.78
2022-11-25T20:20:49.845Z,6.45
2022-11-25T20:23:28.001Z,6.80
2022-11-25T20:25:55.874Z,6.45
2022-11-25T20:28:25.485Z,6.35
2022-11-25T20:30:53.474Z,6.70
2022-11-25T20:33:24.415Z,6.38
2022-11-25T20:35:58.429Z,7.35
2022-11-25T20:38:27.779Z,7.15
2022-11-25T20:40:57.915Z,7.00
2022-11-25T20:43:29.580Z,7.10
2022-11-25T20:45:56.966Z,6.75
2022-11-25T20:48:24.989Z,6.72
2022-11-25T20:50:52.168Z,7.47
2022-11-25T20:53:21.623Z,8.32
2022-11-25T20:55:49.458Z,8.15
2022-11-25T20:58:27.786Z,7.80
2022-11-25T21:00:57.968Z,7.15
2022-11-25T21:03:26.008Z,7.50
2022-11-25T21:05:54.884Z,6.80
2022-11-25T21:08:24.038Z,7.60
2022-11-25T21:10:53.913Z,7.28
2022-11-25T21:13:23.382Z,8.82
2022-11-25T21:15:53.258Z,8.18
2022-11-25T21:18:21.190Z,6.88
2022-11-25T21:20:49.711Z,7.38
2022-11-25T21:23:23.208Z,7.53
2022-11-25T21:25:50.593Z,7.78
2022-11-25T21:28:20.549Z,7.85
2022-11-25T21:30:47.811Z,7.85
2022-11-25T21:33:15.382Z,8.20
2022-11-25T21:35:45.337Z,8.40
2022-11-25T21:38:20.822Z,8.07
2022-11-25T21:40:52.917Z,8.30
2022-11-25T21:43:21.968Z,8.73
2022-11-25T21:45:52.226Z,8.75
2022-11-25T21:48:24.435Z,9.20
2022-11-25T21:50:51.405Z,8.15
2022-11-25T21:53:18.496Z,7.90
2022-11-25T21:55:46.124Z,8.93
2022-11-25T21:58:21.688Z,8.10
2022-11-25T22:00:54.894Z,9.10
2022-11-25T22:03:23.128Z,8.63
2022-11-25T22:05:50.815Z,11.18
2022-11-25T22:08:18.255Z,13.15
2022-11-25T22:10:49.076Z,9.45
2022-11-25T22:13:27.249Z,7.43
2022-11-25T22:15:59.166Z,8.70
2022-11-25T22:18:31.878Z,7.63
2022-11-25T22:20:58.942Z,8.40
2022-11-25T22:23:26.141Z,8.13
2022-11-25T22:25:53.693Z,8.85
2022-11-25T22:28:27.357Z,7.75
2022-11-25T22:30:57.618Z,8.55
2022-11-25T22:33:37.135Z,7.32
2022-11-25T22:36:04.517Z,8.40
2022-11-25T22:38:31.602Z,7.82
2022-11-25T22:41:04.275Z,8.05
2022-11-25T22:43:39.166Z,6.72
2022-11-25T22:46:06.158Z,7.10
2022-11-25T22:48:37.302Z,7.05
2022-11-25T22:51:05.584Z,7.85
2022-11-25T22:53:32.591Z,7.43
2022-11-25T22:55:59.369Z,6.97
2022-11-25T22:58:26.950Z,6.97
2022-11-25T23:00:55.398Z,7.20
2022-11-25T23:03:33.368Z,7.40
2022-11-25T23:06:01.824Z,6.63
2022-11-25T23:08:31.586Z,5.85
2022-11-25T23:10:58.611Z,6.70
2022-11-25T23:13:25.580Z,6.68
2022-11-25T23:15:57.815Z,6.85
2022-11-25T23:18:38.109Z,6.35
2022-11-25T23:21:07.351Z,6.07
2022-11-25T23:23:34.137Z,6.15
2022-11-25T23:26:00.986Z,6.43
2022-11-25T23:28:27.858Z,6.00
2022-11-25T23:30:57.190Z,6.43
2022-11-25T23:33:43.579Z,6.28
2022-11-25T23:36:21.450Z,5.55
2022-11-25T23:38:55.633Z,5.97
2022-11-25T23:41:28.642Z,5.43
2022-11-25T23:43:55.983Z,5.43
2022-11-25T23:46:27.411Z,5.50
2022-11-25T23:48:57.375Z,6.13
2022-11-25T23:51:26.656Z,5.15
2022-11-25T23:53:54.431Z,4.40
2022-11-25T23:56:21.735Z,4.88
2022-11-25T23:58:49.957Z,5.10
